createdAt,value
2022-11-18T00:01:42.548Z,20.03
2022-11-18T00:06:44.357Z,19.70
2022-11-18T00:12:04.500Z,21.27
2022-11-18T00:17:07.847Z,18.67
2022-11-18T00:22:13.101Z,19.87
2022-11-18T00:27:14.980Z,17.93
2022-11-18T00:32:16.767Z,17.13
2022-11-18T00:37:18.478Z,14.40
2022-11-18T00:42:38.497Z,17.50
2022-11-18T00:47:40.267Z,23.07
2022-11-18T00:52:42.080Z,17.80
2022-11-18T00:57:43.774Z,13.27
2022-11-18T01:02:45.514Z,17.97
2022-11-18T01:07:47.312Z,14.00
2022-11-18T01:13:07.426Z,17.27
2022-11-18T01:18:10.427Z,19.57
2022-11-18T01:23:13.613Z,17.20
2022-11-18T01:28:23.349Z,19.77
2022-11-18T01:33:25.530Z,15.50
2022-11-18T01:38:28.386Z,16.50
2022-11-18T01:44:06.618Z,16.80
2022-11-18T01:49:14.818Z,20.83
2022-11-18T01:54:23.586Z,17.10
2022-11-18T01:59:32.414Z,17.70
2022-11-18T02:04:34.925Z,11.60
2022-11-18T02:09:40.022Z,22.33
2022-11-18T02:14:46.761Z,15.67
2022-11-18T02:20:11.653Z,14.87
2022-11-18T02:26:07.246Z,17.53
2022-11-18T02:31:24.769Z,17.13
2022-11-18T02:37:01.156Z,12.20
2022-11-18T02:42:10.445Z,16.23
2022-11-18T02:47:16.764Z,15.33
2022-11-18T02:52:22.766Z,15.67
2022-11-18T02:57:30.098Z,14.73
2022-11-18T03:02:49.114Z,15.80
2022-11-18T03:08:11.071Z,14.73
2022-11-18T03:13:30.185Z,13.07
2022-11-18T03:19:09.012Z,15.40
2022-11-18T03:24:22.662Z,18.70
2022-11-18T03:29:34.185Z,18.63
2022-11-18T03:34:51.730Z,12.70
2022-11-18T03:40:20.897Z,15.83
2022-11-18T03:45:49.569Z,21.23
2022-11-18T03:51:00.110Z,18.27
2022-11-18T03:56:23.659Z,17.60
2022-11-18T04:02:16.293Z,24.63
2022-11-18T04:07:32.066Z,21.30
2022-11-18T04:12:44.209Z,19.10
2022-11-18T04:17:46.172Z,22.80
2022-11-18T04:22:47.971Z,14.80
2022-11-18T04:27:50.120Z,21.53
2022-11-18T04:32:51.852Z,22.40
2022-11-18T04:37:54.457Z,24.93
2022-11-18T04:42:56.251Z,26.33
2022-11-18T04:48:03.335Z,32.73
2022-11-18T04:53:05.658Z,24.47
2022-11-18T04:58:07.357Z,27.00
2022-11-18T05:03:09.090Z,22.13
2022-11-18T05:08:10.833Z,24.80
2022-11-18T05:13:13.321Z,28.13
2022-11-18T05:18:15.014Z,25.20
2022-11-18T05:23:16.747Z,28.37
2022-11-18T05:28:18.493Z,24.70
2022-11-18T05:33:20.213Z,27.50
2022-11-18T05:38:21.952Z,21.07
2022-11-18T05:43:23.715Z,21.13
2022-11-18T05:48:26.228Z,28.73
2022-11-18T05:53:28.068Z,20.10
2022-11-18T05:58:30.296Z,28.97
2022-11-18T06:03:38.536Z,18.57
2022-11-18T06:08:51.372Z,30.20
2022-11-18T06:14:10.643Z,22.80
2022-11-18T06:19:12.514Z,19.40
2022-11-18T06:24:15.491Z,18.67
2022-11-18T06:29:27.272Z,21.90
2022-11-18T06:34:29.546Z,15.17
2022-11-18T06:39:31.270Z,17.97
2022-11-18T06:44:33.071Z,14.20
2022-11-18T06:49:47.694Z,17.30
2022-11-18T06:54:49.525Z,17.10
2022-11-18T06:59:51.256Z,14.80
2022-11-18T07:04:52.983Z,16.53
2022-11-18T07:09:54.936Z,16.77
2022-11-18T07:14:56.636Z,14.63
2022-11-18T07:19:58.385Z,16.77
2022-11-18T07:25:00.122Z,17.33
2022-11-18T07:30:02.001Z,14.13
2022-11-18T07:35:04.100Z,15.77
2022-11-18T07:40:07.287Z,16.60
2022-11-18T07:45:12.690Z,16.27
2022-11-18T07:50:14.623Z,21.80
2022-11-18T07:55:16.402Z,14.07
2022-11-18T08:00:19.286Z,18.70
2022-11-18T08:05:21.159Z,12.30
2022-11-18T08:10:23.064Z,17.77
2022-11-18T08:15:25.791Z,19.43
2022-11-18T08:20:27.875Z,17.43
2022-11-18T08:25:29.685Z,16.57
2022-11-18T08:30:34.238Z,18.33
2022-11-18T08:35:35.986Z,16.83
2022-11-18T08:40:38.266Z,13.43
2022-11-18T08:45:41.237Z,13.57
2022-11-18T08:50:43.236Z,11.43
2022-11-18T08:55:45.114Z,11.07
2022-11-18T09:00:46.879Z,10.10
2022-11-18T09:05:48.784Z,16.50
2022-11-18T09:10:50.486Z,14.67
2022-11-18T09:15:52.306Z,35.00
2022-11-18T09:21:05.364Z,10.20
2022-11-18T09:26:15.688Z,11.57
2022-11-18T09:31:18.931Z,12.70
2022-11-18T09:36:25.568Z,10.73
2022-11-18T09:41:47.812Z,12.03
2022-11-18T09:47:04.352Z,16.87
2022-11-18T09:52:40.756Z,16.80
2022-11-18T09:57:54.317Z,7.57
2022-11-18T10:03:12.415Z,10.23
2022-11-18T10:08:58.399Z,9.67
2022-11-18T10:15:00.005Z,9.07
2022-11-18T10:20:26.440Z,6.63
2022-11-18T10:25:28.191Z,10.40
2022-11-18T10:30:31.285Z,6.47
2022-11-18T10:35:39.652Z,5.17
2022-11-18T10:40:50.601Z,5.10
2022-11-18T10:45:52.394Z,9.63
2022-11-18T10:50:56.083Z,4.97
2022-11-18T10:56:13.232Z,5.07
2022-11-18T11:01:27.350Z,4.50
2022-11-18T11:06:31.505Z,3.73
2022-11-18T11:11:57.241Z,4.77
2022-11-18T11:17:22.803Z,4.43
2022-11-18T11:22:24.596Z,6.63
2022-11-18T11:28:15.287Z,6.63
2022-11-18T11:33:47.926Z,7.73
2022-11-18T11:39:45.755Z,4.40
2022-11-18T11:45:56.982Z,7.93
2022-11-18T11:51:16.468Z,4.47
2022-11-18T11:57:31.741Z,7.03
2022-11-18T12:03:01.107Z,6.63
2022-11-18T12:08:16.870Z,6.70
2022-11-18T12:14:47.904Z,7.80
2022-11-18T12:19:49.626Z,7.17
2022-11-18T12:24:51.408Z,3.63
2022-11-18T12:30:01.729Z,6.10
2022-11-18T12:35:35.537Z,5.00
2022-11-18T12:40:52.193Z,4.33
2022-11-18T12:45:57.667Z,4.57
2022-11-18T12:51:15.823Z,5.30
2022-11-18T12:56:17.442Z,4.37
2022-11-18T13:01:24.511Z,5.60
2022-11-18T13:06:31.318Z,5.30
2022-11-18T13:11:52.901Z,6.30
2022-11-18T13:17:13.010Z,5.07
2022-11-18T13:22:37.016Z,6.03
2022-11-18T13:28:08.765Z,3.67
2022-11-18T13:33:11.956Z,4.33
2022-11-18T13:38:28.396Z,3.90
2022-11-18T13:43:33.381Z,4.40
2022-11-18T13:48:41.457Z,16.00
2022-11-18T13:53:44.417Z,3.83
2022-11-18T13:59:28.812Z,3.57
2022-11-18T14:04:26.463Z,5.57
2022-11-18T14:09:31.506Z,4.80
2022-11-18T14:14:41.275Z,3.93
2022-11-18T14:19:45.799Z,3.87
2022-11-18T14:25:28.197Z,3.60
2022-11-18T14:30:44.183Z,3.80
2022-11-18T14:36:18.203Z,3.97
2022-11-18T14:41:44.378Z,3.37
2022-11-18T14:46:53.409Z,3.27
2022-11-18T14:51:55.832Z,3.27
2022-11-18T14:57:02.831Z,4.93
2022-11-18T15:02:04.643Z,3.37
2022-11-18T15:07:06.637Z,2.27
2022-11-18T15:12:08.717Z,3.17
2022-11-18T15:17:13.188Z,2.60
2022-11-18T15:22:14.891Z,3.47
2022-11-18T15:27:16.638Z,3.13
2022-11-18T15:32:18.385Z,3.40
2022-11-18T15:37:20.277Z,5.10
2022-11-18T15:42:23.438Z,3.77
2022-11-18T15:47:25.478Z,6.30
2022-11-18T15:52:28.357Z,3.43
2022-11-18T15:57:30.154Z,5.03
2022-11-18T16:02:31.907Z,3.33
2022-11-18T16:07:33.848Z,2.90
2022-11-18T16:12:48.651Z,2.90
2022-11-18T16:17:50.396Z,3.30
2022-11-18T16:22:53.913Z,3.00
2022-11-18T16:27:57.697Z,3.17
2022-11-18T16:33:01.490Z,3.53
2022-11-18T16:38:03.495Z,2.93
2022-11-18T16:43:05.353Z,4.03
2022-11-18T16:48:07.115Z,4.27
2022-11-18T16:53:09.082Z,3.40
2022-11-18T16:58:11.716Z,6.20
2022-11-18T17:03:13.524Z,4.30
2022-11-18T17:08:15.350Z,4.20
2022-11-18T17:13:17.143Z,3.17
2022-11-18T17:18:18.914Z,3.57
2022-11-18T17:23:20.745Z,4.10
2022-11-18T17:28:22.542Z,10.60
2022-11-18T17:33:24.657Z,5.60
2022-11-18T17:38:26.889Z,4.97
2022-11-18T17:43:29.840Z,6.93
2022-11-18T17:48:31.710Z,5.73
2022-11-18T17:53:33.473Z,8.27
2022-11-18T17:58:35.328Z,6.63
2022-11-18T18:03:38.075Z,10.87
2022-11-18T18:08:40.678Z,8.83
2022-11-18T18:14:02.337Z,8.20
2022-11-18T18:19:06.590Z,10.23
2022-11-18T18:24:10.001Z,13.67
2022-11-18T18:29:12.785Z,10.87
2022-11-18T18:34:17.872Z,7.53
2022-11-18T18:39:19.909Z,10.37
2022-11-18T18:44:22.079Z,11.27
2022-11-18T18:49:24.395Z,14.10
2022-11-18T18:54:26.200Z,12.27
2022-11-18T18:59:28.273Z,20.63
2022-11-18T19:04:30.211Z,11.60
2022-11-18T19:09:37.042Z,11.83
2022-11-18T19:14:38.840Z,12.67
2022-11-18T19:20:01.483Z,11.20
2022-11-18T19:25:03.597Z,18.23
2022-11-18T19:30:09.537Z,12.40
2022-11-18T19:35:11.734Z,11.60
2022-11-18T19:40:15.657Z,12.47
2022-11-18T19:45:17.635Z,13.63
2022-11-18T19:50:19.644Z,11.00
2022-11-18T19:55:21.402Z,13.60
2022-11-18T20:00:23.180Z,13.53
2022-11-18T20:05:47.138Z,12.83
2022-11-18T20:10:53.164Z,13.07
2022-11-18T20:16:02.745Z,11.73
2022-11-18T20:21:15.120Z,18.00
2022-11-18T20:26:20.911Z,16.30
2022-11-18T20:31:24.003Z,13.87
2022-11-18T20:36:34.748Z,22.90
2022-11-18T20:41:36.642Z,11.10
2022-11-18T20:46:38.437Z,15.43
2022-11-18T20:51:40.243Z,13.57
2022-11-18T20:56:42.143Z,10.40
2022-11-18T21:01:44.410Z,15.17
2022-11-18T21:06:46.244Z,12.13
2022-11-18T21:11:47.983Z,18.67
2022-11-18T21:16:51.096Z,16.77
2022-11-18T21:21:54.915Z,17.60
2022-11-18T21:26:59.083Z,15.60
2022-11-18T21:32:01.618Z,18.47
2022-11-18T21:37:05.232Z,16.73
2022-11-18T21:42:07.094Z,13.50
2022-11-18T21:47:08.890Z,12.70
2022-11-18T21:52:10.658Z,12.20
2022-11-18T21:57:12.424Z,15.27
2022-11-18T22:02:14.897Z,12.30
2022-11-18T22:07:16.765Z,14.73
2022-11-18T22:12:18.693Z,12.53
2022-11-18T22:17:20.496Z,11.50
2022-11-18T22:22:22.275Z,11.93
2022-11-18T22:27:24.245Z,8.93
2022-11-18T22:32:25.998Z,13.80
2022-11-18T22:37:27.767Z,12.20
2022-11-18T22:42:47.958Z,11.03
2022-11-18T22:47:49.757Z,22.03
2022-11-18T22:52:51.554Z,18.20
2022-11-18T22:57:53.311Z,17.47
2022-11-18T23:02:55.058Z,24.67
2022-11-18T23:07:56.888Z,12.63
2022-11-18T23:13:17.049Z,16.07
2022-11-18T23:18:18.760Z,9.30
2022-11-18T23:23:20.492Z,7.87
2022-11-18T23:28:22.511Z,9.53
2022-11-18T23:33:24.186Z,11.07
2022-11-18T23:38:28.623Z,10.43
2022-11-18T23:43:31.080Z,7.10
2022-11-18T23:48:40.283Z,9.80
2022-11-18T23:53:43.011Z,5.87
2022-11-18T23:58:49.027Z,5.30
